Aeroporto :
LOGIN :

Iscrizione | Disclaimer

   EN    FR    IT 

 










Sommario :    VFR   VFR Marginale   IFR   IFR Intensivo   IFR Molto Intensivo
Visibilità : 
Base nubi : 
>= 8 km
>= 3000ft
5 / 8 km
1000 / 3000 ft
1500m / 5 km
500 / 1000 ft
800 / 1500m
200 / 500 ft
< 800m
< 200 ft
Simboli :   Temporali  Nebbia  Neve Forte  Precipitazioni Forti  Vento > 20 kt
SIGMETs :   Varie  Temporali  Ghiacco  Turbolenza  Onda orograficha  Ceneri Vulcaniche






- Altitudine del aeroporto : 313 ft


LFQA - Reims-Prunay

ULTIMO METAR :
  • 181330Z AUTO 35008KT 320V040 9999 FEW031 BKN040 BKN056 11/04 Q1021

METARs OBSOLETI :
  • 181300Z AUTO 33006KT 270V020 9999 FEW033 BKN056 11/05 Q1021
  • 181230Z AUTO 36007KT 250V050 9999 SCT034 BKN049 BKN056 10/04 Q1022
  • 181200Z AUTO 34006KT 270V050 9999 SCT030 BKN037 BKN047 10/04 Q1021
  • 181130Z AUTO 33006KT 280V360 9999 BKN027 BKN037 BKN043 10/04 Q1021
  • 181100Z AUTO 01007KT 330V050 9999 SCT030 BKN039 09/03 Q1021
  • 181030Z AUTO 36010KT 330V040 9999 FEW024 OVC037 09/04 Q1021
  • 181000Z AUTO 36007KT 300V040 9999 FEW023 BKN034 BKN040 08/03 Q1021
  • 180930Z AUTO 36007KT 310V040 9999 SCT020 BKN026 BKN033 07/04 Q1021
  • 180900Z AUTO 01009KT 330V040 9999 FEW017 07/04 Q1020

TAF N/A



MetMap, La meteo Aeronautica in un colpo d'occhio ! - Copyright ORBIFLY Dicembre 2007 - Disclaimer

ORBIFLY MET'MAP TEAM :

Programmazione e sviluppo : Alexandra Zaïnal
Concezione : Baudouin d'Aumeries
Supporto tecnico e logistico : Manuel Goepfert
Aiuto : Marc-Olivier Méhu
Aiuto per la traduzione : Arnaldo La Scala




FONTI E CREDITI :

   NOAA